sensor_id;sensor_type;location;lat;lon;timestamp;temperature;humidity
21495;DHT22;10909;53.590;10.054;2023-03-20T00:03:44;13.20;75.30
21495;DHT22;10909;53.590;10.054;2023-03-20T00:06:23;13.20;75.40
21495;DHT22;10909;53.590;10.054;2023-03-20T00:08:51;13.20;75.60
21495;DHT22;10909;53.590;10.054;2023-03-20T00:11:29;13.20;75.50
21495;DHT22;10909;53.590;10.054;2023-03-20T00:14:12;13.20;75.50
21495;DHT22;10909;53.590;10.054;2023-03-20T00:16:40;13.20;75.50
21495;DHT22;10909;53.590;10.054;2023-03-20T00:19:16;13.30;76.10
21495;DHT22;10909;53.590;10.054;2023-03-20T00:21:43;13.10;75.20
21495;DHT22;10909;53.590;10.054;2023-03-20T00:24:12;13.10;75.20
21495;DHT22;10909;53.590;10.054;2023-03-20T00:26:38;13.20;75.40
21495;DHT22;10909;53.590;10.054;2023-03-20T00:29:06;13.20;75.40
21495;DHT22;10909;53.590;10.054;2023-03-20T00:31:38;13.10;75.40
21495;DHT22;10909;53.590;10.054;2023-03-20T00:34:11;13.10;75.40
21495;DHT22;10909;53.590;10.054;2023-03-20T00:36:38;13.10;75.60
21495;DHT22;10909;53.590;10.054;2023-03-20T00:39:05;13.10;75.50
21495;DHT22;10909;53.590;10.054;2023-03-20T00:44:17;13.10;75.80
21495;DHT22;10909;53.590;10.054;2023-03-20T00:46:46;13.10;75.70
21495;DHT22;10909;53.590;10.054;2023-03-20T00:49:14;13.10;75.80
21495;DHT22;10909;53.590;10.054;2023-03-20T00:51:40;13.10;75.80
21495;DHT22;10909;53.590;10.054;2023-03-20T00:54:14;13.10;75.80
21495;DHT22;10909;53.590;10.054;2023-03-20T00:56:44;13.10;76.00
21495;DHT22;10909;53.590;10.054;2023-03-20T00:59:21;13.10;76.00
21495;DHT22;10909;53.590;10.054;2023-03-20T01:01:48;13.00;75.90
21495;DHT22;10909;53.590;10.054;2023-03-20T01:04:16;13.10;75.90
21495;DHT22;10909;53.590;10.054;2023-03-20T01:06:44;13.10;76.70
21495;DHT22;10909;53.590;10.054;2023-03-20T01:09:10;13.10;75.90
21495;DHT22;10909;53.590;10.054;2023-03-20T01:11:37;13.00;75.80
21495;DHT22;10909;53.590;10.054;2023-03-20T01:14:05;13.10;75.80
21495;DHT22;10909;53.590;10.054;2023-03-20T01:16:36;13.10;75.90
21495;DHT22;10909;53.590;10.054;2023-03-20T01:19:02;12.90;75.80
21495;DHT22;10909;53.590;10.054;2023-03-20T01:21:29;13.00;75.90
21495;DHT22;10909;53.590;10.054;2023-03-20T01:23:55;13.00;76.10
21495;DHT22;10909;53.590;10.054;2023-03-20T01:26:45;13.00;76.10
21495;DHT22;10909;53.590;10.054;2023-03-20T01:29:20;13.00;76.40
21495;DHT22;10909;53.590;10.054;2023-03-20T01:31:47;12.90;76.30
21495;DHT22;10909;53.590;10.054;2023-03-20T01:34:15;12.80;76.20
21495;DHT22;10909;53.590;10.054;2023-03-20T01:36:49;12.90;76.50
21495;DHT22;10909;53.590;10.054;2023-03-20T01:39:16;12.90;76.40
21495;DHT22;10909;53.590;10.054;2023-03-20T01:41:43;12.90;76.40
21495;DHT22;10909;53.590;10.054;2023-03-20T01:44:19;12.90;76.40
21495;DHT22;10909;53.590;10.054;2023-03-20T01:46:48;12.70;76.40
21495;DHT22;10909;53.590;10.054;2023-03-20T01:51:47;12.70;76.70
21495;DHT22;10909;53.590;10.054;2023-03-20T01:54:29;12.70;76.70
21495;DHT22;10909;53.590;10.054;2023-03-20T01:57:19;12.80;76.90
21495;DHT22;10909;53.590;10.054;2023-03-20T02:00:01;12.70;77.00
21495;DHT22;10909;53.590;10.054;2023-03-20T02:02:29;12.70;76.90
21495;DHT22;10909;53.590;10.054;2023-03-20T02:05:05;12.70;76.80
21495;DHT22;10909;53.590;10.054;2023-03-20T02:07:34;12.70;77.10
21495;DHT22;10909;53.590;10.054;2023-03-20T02:10:05;12.70;76.90
21495;DHT22;10909;53.590;10.054;2023-03-20T02:12:35;12.70;76.80
21495;DHT22;10909;53.590;10.054;2023-03-20T02:15:03;12.70;76.80
21495;DHT22;10909;53.590;10.054;2023-03-20T02:17:29;12.60;77.00
21495;DHT22;10909;53.590;10.054;2023-03-20T02:23:10;12.70;77.30
21495;DHT22;10909;53.590;10.054;2023-03-20T02:46:26;12.30;77.00
21495;DHT22;10909;53.590;10.054;2023-03-20T02:51:38;12.20;76.90
21495;DHT22;10909;53.590;10.054;2023-03-20T02:54:19;12.20;76.90
21495;DHT22;10909;53.590;10.054;2023-03-20T03:02:46;12.10;76.90
21495;DHT22;10909;53.590;10.054;2023-03-20T03:05:18;12.10;76.90
21495;DHT22;10909;53.590;10.054;2023-03-20T03:07:48;12.10;77.00
21495;DHT22;10909;53.590;10.054;2023-03-20T03:10:29;12.10;77.10
21495;DHT22;10909;53.590;10.054;2023-03-20T03:12:57;12.10;77.30
21495;DHT22;10909;53.590;10.054;2023-03-20T03:15:36;12.00;77.00
21495;DHT22;10909;53.590;10.054;2023-03-20T03:18:05;11.90;77.20
21495;DHT22;10909;53.590;10.054;2023-03-20T03:20:37;11.90;77.20
21495;DHT22;10909;53.590;10.054;2023-03-20T03:23:04;11.90;77.20
21495;DHT22;10909;53.590;10.054;2023-03-20T03:25:38;11.90;77.40
21495;DHT22;10909;53.590;10.054;2023-03-20T03:28:22;11.90;77.50
21495;DHT22;10909;53.590;10.054;2023-03-20T03:30:53;12.00;77.60
21495;DHT22;10909;53.590;10.054;2023-03-20T03:33:27;11.90;77.40
21495;DHT22;10909;53.590;10.054;2023-03-20T03:41:23;11.90;77.40
21495;DHT22;10909;53.590;10.054;2023-03-20T03:43:59;11.80;77.40
21495;DHT22;10909;53.590;10.054;2023-03-20T03:47:24;11.80;77.50
21495;DHT22;10909;53.590;10.054;2023-03-20T03:49:34;11.90;77.70
21495;DHT22;10909;53.590;10.054;2023-03-20T03:52:09;11.80;77.60
21495;DHT22;10909;53.590;10.054;2023-03-20T03:54:50;11.90;77.70
21495;DHT22;10909;53.590;10.054;2023-03-20T03:57:24;11.80;77.60
21495;DHT22;10909;53.590;10.054;2023-03-20T03:59:52;11.80;78.40
21495;DHT22;10909;53.590;10.054;2023-03-20T04:02:21;11.80;77.70
21495;DHT22;10909;53.590;10.054;2023-03-20T04:04:50;11.80;77.80
21495;DHT22;10909;53.590;10.054;2023-03-20T04:07:17;11.80;77.90
21495;DHT22;10909;53.590;10.054;2023-03-20T04:09:43;11.90;77.90
21495;DHT22;10909;53.590;10.054;2023-03-20T04:14:54;11.80;77.80
21495;DHT22;10909;53.590;10.054;2023-03-20T04:17:20;11.80;77.60
21495;DHT22;10909;53.590;10.054;2023-03-20T04:19:46;11.80;77.70
21495;DHT22;10909;53.590;10.054;2023-03-20T04:22:12;11.70;77.60
21495;DHT22;10909;53.590;10.054;2023-03-20T04:24:38;11.70;77.70
21495;DHT22;10909;53.590;10.054;2023-03-20T04:27:04;11.70;77.70
21495;DHT22;10909;53.590;10.054;2023-03-20T04:29:30;11.60;77.70
21495;DHT22;10909;53.590;10.054;2023-03-20T04:31:56;11.60;78.00
21495;DHT22;10909;53.590;10.054;2023-03-20T04:34:22;11.50;78.20
21495;DHT22;10909;53.590;10.054;2023-03-20T04:36:49;11.50;78.20
21495;DHT22;10909;53.590;10.054;2023-03-20T04:39:15;11.60;78.60
21495;DHT22;10909;53.590;10.054;2023-03-20T04:41:41;11.50;78.50
21495;DHT22;10909;53.590;10.054;2023-03-20T04:44:07;11.60;78.60
21495;DHT22;10909;53.590;10.054;2023-03-20T04:46:33;11.60;78.50
21495;DHT22;10909;53.590;10.054;2023-03-20T04:48:59;11.60;79.40
21495;DHT22;10909;53.590;10.054;2023-03-20T04:51:25;11.60;78.60
21495;DHT22;10909;53.590;10.054;2023-03-20T04:53:51;11.50;78.40
21495;DHT22;10909;53.590;10.054;2023-03-20T04:56:17;11.50;78.50
21495;DHT22;10909;53.590;10.054;2023-03-20T04:58:43;11.50;78.50
21495;DHT22;10909;53.590;10.054;2023-03-20T05:01:09;11.50;78.60
21495;DHT22;10909;53.590;10.054;2023-03-20T05:03:35;11.60;78.80
21495;DHT22;10909;53.590;10.054;2023-03-20T05:06:03;11.50;78.70
21495;DHT22;10909;53.590;10.054;2023-03-20T05:08:29;11.50;78.80
21495;DHT22;10909;53.590;10.054;2023-03-20T05:10:55;11.50;78.80
21495;DHT22;10909;53.590;10.054;2023-03-20T05:13:21;11.50;78.80
21495;DHT22;10909;53.590;10.054;2023-03-20T05:15:47;11.60;78.70
21495;DHT22;10909;53.590;10.054;2023-03-20T05:18:14;11.50;78.60
21495;DHT22;10909;53.590;10.054;2023-03-20T05:20:41;11.50;78.50
21495;DHT22;10909;53.590;10.054;2023-03-20T05:23:07;11.50;78.50
21495;DHT22;10909;53.590;10.054;2023-03-20T05:25:33;11.60;78.50
21495;DHT22;10909;53.590;10.054;2023-03-20T05:27:59;11.50;78.20
21495;DHT22;10909;53.590;10.054;2023-03-20T05:30:25;11.50;78.10
21495;DHT22;10909;53.590;10.054;2023-03-20T05:32:52;11.50;78.00
21495;DHT22;10909;53.590;10.054;2023-03-20T05:35:18;11.50;78.00
21495;DHT22;10909;53.590;10.054;2023-03-20T05:37:44;11.50;78.00
21495;DHT22;10909;53.590;10.054;2023-03-20T05:40:13;11.40;77.90
21495;DHT22;10909;53.590;10.054;2023-03-20T05:42:39;11.40;78.00
21495;DHT22;10909;53.590;10.054;2023-03-20T05:45:06;11.40;78.00
21495;DHT22;10909;53.590;10.054;2023-03-20T05:47:32;11.40;78.00
21495;DHT22;10909;53.590;10.054;2023-03-20T05:49:58;11.40;78.10
21495;DHT22;10909;53.590;10.054;2023-03-20T05:52:24;11.40;78.10
21495;DHT22;10909;53.590;10.054;2023-03-20T05:54:52;11.30;78.20
21495;DHT22;10909;53.590;10.054;2023-03-20T05:57:18;11.30;78.20
21495;DHT22;10909;53.590;10.054;2023-03-20T05:59:44;11.30;78.30
21495;DHT22;10909;53.590;10.054;2023-03-20T06:02:11;11.30;78.30
21495;DHT22;10909;53.590;10.054;2023-03-20T06:04:37;11.30;78.30
21495;DHT22;10909;53.590;10.054;2023-03-20T06:07:04;11.30;78.30
21495;DHT22;10909;53.590;10.054;2023-03-20T06:09:33;11.30;78.30
21495;DHT22;10909;53.590;10.054;2023-03-20T06:11:59;11.30;78.40
21495;DHT22;10909;53.590;10.054;2023-03-20T06:14:25;11.30;78.50
21495;DHT22;10909;53.590;10.054;2023-03-20T06:16:52;11.30;78.50
21495;DHT22;10909;53.590;10.054;2023-03-20T06:19:19;11.30;78.50
21495;DHT22;10909;53.590;10.054;2023-03-20T06:21:46;11.40;78.60
21495;DHT22;10909;53.590;10.054;2023-03-20T06:24:12;11.40;78.50
21495;DHT22;10909;53.590;10.054;2023-03-20T06:26:39;11.40;78.50
21495;DHT22;10909;53.590;10.054;2023-03-20T06:29:07;11.40;78.40
21495;DHT22;10909;53.590;10.054;2023-03-20T06:31:33;11.40;78.60
21495;DHT22;10909;53.590;10.054;2023-03-20T06:33:59;11.40;78.60
21495;DHT22;10909;53.590;10.054;2023-03-20T06:36:25;11.40;78.60
21495;DHT22;10909;53.590;10.054;2023-03-20T06:38:55;11.30;78.50
21495;DHT22;10909;53.590;10.054;2023-03-20T06:41:22;11.40;78.60
21495;DHT22;10909;53.590;10.054;2023-03-20T06:43:48;11.40;78.60
21495;DHT22;10909;53.590;10.054;2023-03-20T06:46:15;11.40;78.70
21495;DHT22;10909;53.590;10.054;2023-03-20T06:48:41;11.40;78.70
21495;DHT22;10909;53.590;10.054;2023-03-20T06:51:08;11.40;78.80
21495;DHT22;10909;53.590;10.054;2023-03-20T06:53:34;11.40;78.80
21495;DHT22;10909;53.590;10.054;2023-03-20T06:56:01;11.40;78.80
21495;DHT22;10909;53.590;10.054;2023-03-20T06:58:27;11.50;78.80
21495;DHT22;10909;53.590;10.054;2023-03-20T07:00:53;11.50;78.80
21495;DHT22;10909;53.590;10.054;2023-03-20T07:03:19;11.40;78.80
21495;DHT22;10909;53.590;10.054;2023-03-20T07:05:46;11.50;78.60
21495;DHT22;10909;53.590;10.054;2023-03-20T07:08:13;11.50;78.50
21495;DHT22;10909;53.590;10.054;2023-03-20T07:10:39;11.50;78.40
21495;DHT22;10909;53.590;10.054;2023-03-20T07:13:05;11.50;78.40
21495;DHT22;10909;53.590;10.054;2023-03-20T07:15:31;11.50;78.40
21495;DHT22;10909;53.590;10.054;2023-03-20T07:17:57;11.50;78.50
21495;DHT22;10909;53.590;10.054;2023-03-20T07:20:24;11.60;78.60
21495;DHT22;10909;53.590;10.054;2023-03-20T07:22:50;11.50;78.60
21495;DHT22;10909;53.590;10.054;2023-03-20T07:25:16;11.60;78.60
21495;DHT22;10909;53.590;10.054;2023-03-20T07:27:43;11.60;78.60
21495;DHT22;10909;53.590;10.054;2023-03-20T07:30:15;11.60;78.70
21495;DHT22;10909;53.590;10.054;2023-03-20T07:32:41;11.60;78.60
21495;DHT22;10909;53.590;10.054;2023-03-20T07:35:07;11.70;78.40
21495;DHT22;10909;53.590;10.054;2023-03-20T07:37:33;11.70;78.20
21495;DHT22;10909;53.590;10.054;2023-03-20T07:39:59;11.80;78.30
21495;DHT22;10909;53.590;10.054;2023-03-20T07:42:27;11.70;78.20
21495;DHT22;10909;53.590;10.054;2023-03-20T07:44:53;11.70;78.20
21495;DHT22;10909;53.590;10.054;2023-03-20T07:47:21;11.80;78.30
21495;DHT22;10909;53.590;10.054;2023-03-20T07:49:47;11.80;78.00
21495;DHT22;10909;53.590;10.054;2023-03-20T07:52:13;11.80;78.00
21495;DHT22;10909;53.590;10.054;2023-03-20T07:54:39;11.80;78.20
21495;DHT22;10909;53.590;10.054;2023-03-20T07:57:05;11.80;78.20
21495;DHT22;10909;53.590;10.054;2023-03-20T07:59:31;11.80;78.40
21495;DHT22;10909;53.590;10.054;2023-03-20T08:01:57;11.90;78.20
21495;DHT22;10909;53.590;10.054;2023-03-20T08:04:30;11.90;78.00
21495;DHT22;10909;53.590;10.054;2023-03-20T08:06:56;11.90;77.90
21495;DHT22;10909;53.590;10.054;2023-03-20T08:09:22;11.90;78.10
21495;DHT22;10909;53.590;10.054;2023-03-20T08:11:49;12.00;78.30
21495;DHT22;10909;53.590;10.054;2023-03-20T08:14:15;12.00;78.30
21495;DHT22;10909;53.590;10.054;2023-03-20T08:16:41;12.00;78.00
21495;DHT22;10909;53.590;10.054;2023-03-20T08:19:08;12.00;77.60
21495;DHT22;10909;53.590;10.054;2023-03-20T08:21:35;12.10;77.50
21495;DHT22;10909;53.590;10.054;2023-03-20T08:24:03;12.00;77.50
21495;DHT22;10909;53.590;10.054;2023-03-20T08:26:30;12.00;77.40
21495;DHT22;10909;53.590;10.054;2023-03-20T08:29:01;12.00;77.30
21495;DHT22;10909;53.590;10.054;2023-03-20T08:31:31;12.00;77.40
21495;DHT22;10909;53.590;10.054;2023-03-20T08:33:59;12.00;77.30
21495;DHT22;10909;53.590;10.054;2023-03-20T08:36:25;12.00;77.30
21495;DHT22;10909;53.590;10.054;2023-03-20T08:38:51;12.00;77.30
21495;DHT22;10909;53.590;10.054;2023-03-20T08:41:17;12.00;77.40
21495;DHT22;10909;53.590;10.054;2023-03-20T08:43:43;12.10;77.20
21495;DHT22;10909;53.590;10.054;2023-03-20T08:46:09;12.00;77.00
21495;DHT22;10909;53.590;10.054;2023-03-20T08:48:35;12.00;77.00
21495;DHT22;10909;53.590;10.054;2023-03-20T08:51:02;12.00;77.20
21495;DHT22;10909;53.590;10.054;2023-03-20T08:53:28;12.00;77.10
21495;DHT22;10909;53.590;10.054;2023-03-20T08:58:27;12.10;77.60
21495;DHT22;10909;53.590;10.054;2023-03-20T09:00:54;12.10;77.40
21495;DHT22;10909;53.590;10.054;2023-03-20T09:03:21;12.10;77.20
21495;DHT22;10909;53.590;10.054;2023-03-20T09:05:48;12.00;77.20
21495;DHT22;10909;53.590;10.054;2023-03-20T09:08:16;12.20;77.60
21495;DHT22;10909;53.590;10.054;2023-03-20T09:10:41;12.10;77.30
21495;DHT22;10909;53.590;10.054;2023-03-20T09:13:07;12.20;77.30
21495;DHT22;10909;53.590;10.054;2023-03-20T09:15:34;12.20;77.30
21495;DHT22;10909;53.590;10.054;2023-03-20T09:17:59;12.20;77.20
21495;DHT22;10909;53.590;10.054;2023-03-20T09:20:25;12.20;77.30
21495;DHT22;10909;53.590;10.054;2023-03-20T09:22:51;12.20;77.30
21495;DHT22;10909;53.590;10.054;2023-03-20T09:25:17;12.20;77.20
21495;DHT22;10909;53.590;10.054;2023-03-20T09:27:43;12.30;77.20
21495;DHT22;10909;53.590;10.054;2023-03-20T09:30:10;12.20;77.10
21495;DHT22;10909;53.590;10.054;2023-03-20T09:32:36;12.30;77.30
21495;DHT22;10909;53.590;10.054;2023-03-20T09:35:02;12.30;77.40
21495;DHT22;10909;53.590;10.054;2023-03-20T09:37:28;12.50;77.30
21495;DHT22;10909;53.590;10.054;2023-03-20T09:39:54;12.40;77.00
21495;DHT22;10909;53.590;10.054;2023-03-20T09:45:49;12.50;76.80
21495;DHT22;10909;53.590;10.054;2023-03-20T09:48:40;12.40;76.30
21495;DHT22;10909;53.590;10.054;2023-03-20T09:57:01;12.60;76.20
21495;DHT22;10909;53.590;10.054;2023-03-20T09:59:29;12.60;76.30
21495;DHT22;10909;53.590;10.054;2023-03-20T10:02:06;12.60;76.10
21495;DHT22;10909;53.590;10.054;2023-03-20T10:04:38;12.60;75.80
21495;DHT22;10909;53.590;10.054;2023-03-20T10:07:05;12.60;76.00
21495;DHT22;10909;53.590;10.054;2023-03-20T10:09:31;12.60;76.00
21495;DHT22;10909;53.590;10.054;2023-03-20T10:12:38;12.60;75.70
21495;DHT22;10909;53.590;10.054;2023-03-20T10:15:19;12.60;75.40
21495;DHT22;10909;53.590;10.054;2023-03-20T10:18:17;12.60;75.60
21495;DHT22;10909;53.590;10.054;2023-03-20T10:21:15;12.60;74.50
21495;DHT22;10909;53.590;10.054;2023-03-20T10:26:22;12.60;75.30
21495;DHT22;10909;53.590;10.054;2023-03-20T10:29:06;12.60;75.30
21495;DHT22;10909;53.590;10.054;2023-03-20T10:40:27;12.60;74.80
21495;DHT22;10909;53.590;10.054;2023-03-20T10:46:27;12.60;75.20
21495;DHT22;10909;53.590;10.054;2023-03-20T10:51:44;12.60;74.50
21495;DHT22;10909;53.590;10.054;2023-03-20T10:54:23;12.60;73.80
21495;DHT22;10909;53.590;10.054;2023-03-20T10:56:53;12.60;74.30
21495;DHT22;10909;53.590;10.054;2023-03-20T10:59:26;12.60;74.50
21495;DHT22;10909;53.590;10.054;2023-03-20T11:05:28;12.60;74.20
21495;DHT22;10909;53.590;10.054;2023-03-20T11:08:11;12.80;74.70
21495;DHT22;10909;53.590;10.054;2023-03-20T11:11:03;12.80;73.80
21495;DHT22;10909;53.590;10.054;2023-03-20T11:13:38;12.90;72.70
21495;DHT22;10909;53.590;10.054;2023-03-20T11:16:32;12.90;73.70
21495;DHT22;10909;53.590;10.054;2023-03-20T11:19:14;12.90;72.30
21495;DHT22;10909;53.590;10.054;2023-03-20T11:21:54;12.90;73.30
21495;DHT22;10909;53.590;10.054;2023-03-20T11:24:37;12.90;73.40
21495;DHT22;10909;53.590;10.054;2023-03-20T11:27:18;13.00;73.40
21495;DHT22;10909;53.590;10.054;2023-03-20T11:32:38;13.00;72.80
21495;DHT22;10909;53.590;10.054;2023-03-20T11:37:50;13.00;72.70
21495;DHT22;10909;53.590;10.054;2023-03-20T11:40:23;13.10;72.90
21495;DHT22;10909;53.590;10.054;2023-03-20T11:45:25;13.10;73.20
21495;DHT22;10909;53.590;10.054;2023-03-20T11:47:54;13.10;73.00
21495;DHT22;10909;53.590;10.054;2023-03-20T11:50:35;13.20;72.50
21495;DHT22;10909;53.590;10.054;2023-03-20T11:55:57;13.20;71.10
21495;DHT22;10909;53.590;10.054;2023-03-20T11:58:24;13.20;71.10
21495;DHT22;10909;53.590;10.054;2023-03-20T12:00:53;13.10;71.40
21495;DHT22;10909;53.590;10.054;2023-03-20T12:03:43;13.10;71.10
21495;DHT22;10909;53.590;10.054;2023-03-20T12:06:25;13.10;70.90
21495;DHT22;10909;53.590;10.054;2023-03-20T12:09:04;13.00;70.90
21495;DHT22;10909;53.590;10.054;2023-03-20T12:14:11;13.00;71.30
21495;DHT22;10909;53.590;10.054;2023-03-20T12:16:41;13.00;71.00
21495;DHT22;10909;53.590;10.054;2023-03-20T12:19:13;13.00;71.60
21495;DHT22;10909;53.590;10.054;2023-03-20T12:24:41;13.10;70.70
21495;DHT22;10909;53.590;10.054;2023-03-20T12:27:24;13.10;70.60
21495;DHT22;10909;53.590;10.054;2023-03-20T12:30:17;13.10;71.10
21495;DHT22;10909;53.590;10.054;2023-03-20T12:32:53;13.10;71.00
21495;DHT22;10909;53.590;10.054;2023-03-20T12:35:33;13.20;71.30
21495;DHT22;10909;53.590;10.054;2023-03-20T12:38:01;13.20;71.30
21495;DHT22;10909;53.590;10.054;2023-03-20T12:40:41;13.20;71.60
21495;DHT22;10909;53.590;10.054;2023-03-20T12:43:13;13.30;71.40
21495;DHT22;10909;53.590;10.054;2023-03-20T12:45:46;13.20;71.90
21495;DHT22;10909;53.590;10.054;2023-03-20T12:48:21;13.40;71.40
21495;DHT22;10909;53.590;10.054;2023-03-20T12:51:03;13.50;71.30
21495;DHT22;10909;53.590;10.054;2023-03-20T12:53:51;13.60;71.20
21495;DHT22;10909;53.590;10.054;2023-03-20T13:05:14;14.10;70.40
21495;DHT22;10909;53.590;10.054;2023-03-20T13:10:27;14.30;69.50
21495;DHT22;10909;53.590;10.054;2023-03-20T13:13:10;14.40;69.60
21495;DHT22;10909;53.590;10.054;2023-03-20T13:21:02;14.50;69.30
21495;DHT22;10909;53.590;10.054;2023-03-20T13:24:13;14.50;68.60
21495;DHT22;10909;53.590;10.054;2023-03-20T13:26:40;14.50;68.20
21495;DHT22;10909;53.590;10.054;2023-03-20T13:32:40;14.40;67.60
21495;DHT22;10909;53.590;10.054;2023-03-20T13:37:43;14.40;68.30
21495;DHT22;10909;53.590;10.054;2023-03-20T13:40:21;14.30;67.30
21495;DHT22;10909;53.590;10.054;2023-03-20T13:43:19;14.30;67.50
21495;DHT22;10909;53.590;10.054;2023-03-20T13:45:47;14.30;66.90
21495;DHT22;10909;53.590;10.054;2023-03-20T13:48:27;14.20;66.90
21495;DHT22;10909;53.590;10.054;2023-03-20T14:02:22;14.00;66.90
21495;DHT22;10909;53.590;10.054;2023-03-20T14:05:04;14.00;67.10
21495;DHT22;10909;53.590;10.054;2023-03-20T14:07:36;13.90;66.90
21495;DHT22;10909;53.590;10.054;2023-03-20T14:12:53;13.90;67.20
21495;DHT22;10909;53.590;10.054;2023-03-20T14:15:20;13.80;67.70
21495;DHT22;10909;53.590;10.054;2023-03-20T14:17:47;13.80;67.60
21495;DHT22;10909;53.590;10.054;2023-03-20T14:20:31;13.90;67.90
21495;DHT22;10909;53.590;10.054;2023-03-20T14:25:35;13.90;67.80
21495;DHT22;10909;53.590;10.054;2023-03-20T14:30:46;13.90;66.50
21495;DHT22;10909;53.590;10.054;2023-03-20T14:36:27;13.90;66.40
21495;DHT22;10909;53.590;10.054;2023-03-20T14:53:24;13.80;67.70
21495;DHT22;10909;53.590;10.054;2023-03-20T15:01:13;13.70;67.50
21495;DHT22;10909;53.590;10.054;2023-03-20T15:03:41;13.70;67.40
21495;DHT22;10909;53.590;10.054;2023-03-20T15:06:08;13.70;67.70
21495;DHT22;10909;53.590;10.054;2023-03-20T15:08:43;13.70;68.20
21495;DHT22;10909;53.590;10.054;2023-03-20T15:11:12;13.60;68.00
21495;DHT22;10909;53.590;10.054;2023-03-20T15:13:40;13.60;67.60
21495;DHT22;10909;53.590;10.054;2023-03-20T15:16:11;13.60;68.00
21495;DHT22;10909;53.590;10.054;2023-03-20T15:18:44;13.50;68.20
21495;DHT22;10909;53.590;10.054;2023-03-20T15:21:17;13.50;67.80
21495;DHT22;10909;53.590;10.054;2023-03-20T15:26:14;13.50;68.40
21495;DHT22;10909;53.590;10.054;2023-03-20T15:28:42;13.40;68.30
21495;DHT22;10909;53.590;10.054;2023-03-20T15:31:20;13.40;68.50
21495;DHT22;10909;53.590;10.054;2023-03-20T15:33:49;13.40;68.80
21495;DHT22;10909;53.590;10.054;2023-03-20T15:36:18;13.40;69.10
21495;DHT22;10909;53.590;10.054;2023-03-20T15:38:46;13.40;69.20
21495;DHT22;10909;53.590;10.054;2023-03-20T15:41:27;13.50;69.30
21495;DHT22;10909;53.590;10.054;2023-03-20T15:46:50;13.50;69.20
21495;DHT22;10909;53.590;10.054;2023-03-20T15:49:18;13.50;69.10
21495;DHT22;10909;53.590;10.054;2023-03-20T15:51:44;13.50;69.10
21495;DHT22;10909;53.590;10.054;2023-03-20T15:54:12;13.50;69.40
21495;DHT22;10909;53.590;10.054;2023-03-20T15:56:45;13.50;69.40
21495;DHT22;10909;53.590;10.054;2023-03-20T15:59:14;13.50;69.50
21495;DHT22;10909;53.590;10.054;2023-03-20T16:01:43;13.50;69.50
21495;DHT22;10909;53.590;10.054;2023-03-20T16:04:13;13.50;69.30
21495;DHT22;10909;53.590;10.054;2023-03-20T16:06:58;13.50;69.40
21495;DHT22;10909;53.590;10.054;2023-03-20T16:09:25;13.50;69.50
21495;DHT22;10909;53.590;10.054;2023-03-20T16:12:00;13.50;69.50
21495;DHT22;10909;53.590;10.054;2023-03-20T16:14:31;13.40;69.50
21495;DHT22;10909;53.590;10.054;2023-03-20T16:16:59;13.40;69.70
21495;DHT22;10909;53.590;10.054;2023-03-20T16:19:27;13.40;69.80
21495;DHT22;10909;53.590;10.054;2023-03-20T16:22:00;13.40;70.00
21495;DHT22;10909;53.590;10.054;2023-03-20T16:24:35;13.40;70.00
21495;DHT22;10909;53.590;10.054;2023-03-20T16:27:06;13.30;70.00
21495;DHT22;10909;53.590;10.054;2023-03-20T16:29:32;13.30;70.20
21495;DHT22;10909;53.590;10.054;2023-03-20T16:32:05;13.30;70.20
21495;DHT22;10909;53.590;10.054;2023-03-20T16:34:34;13.20;70.40
21495;DHT22;10909;53.590;10.054;2023-03-20T16:37:21;13.20;70.70
21495;DHT22;10909;53.590;10.054;2023-03-20T16:39:47;13.20;70.70
21495;DHT22;10909;53.590;10.054;2023-03-20T16:42:23;13.20;70.70
21495;DHT22;10909;53.590;10.054;2023-03-20T16:44:57;13.20;70.80
21495;DHT22;10909;53.590;10.054;2023-03-20T16:47:33;13.20;71.10
21495;DHT22;10909;53.590;10.054;2023-03-20T16:50:15;13.20;71.20
21495;DHT22;10909;53.590;10.054;2023-03-20T16:52:47;13.20;71.30
21495;DHT22;10909;53.590;10.054;2023-03-20T16:55:16;13.20;71.40
21495;DHT22;10909;53.590;10.054;2023-03-20T16:57:46;13.20;71.50
21495;DHT22;10909;53.590;10.054;2023-03-20T17:00:22;13.20;71.60
21495;DHT22;10909;53.590;10.054;2023-03-20T17:02:51;13.20;71.60
21495;DHT22;10909;53.590;10.054;2023-03-20T17:05:19;13.20;71.50
21495;DHT22;10909;53.590;10.054;2023-03-20T17:07:49;13.20;72.30
21495;DHT22;10909;53.590;10.054;2023-03-20T17:12:43;13.30;71.90
21495;DHT22;10909;53.590;10.054;2023-03-20T17:15:29;13.30;71.90
21495;DHT22;10909;53.590;10.054;2023-03-20T17:17:55;13.40;71.50
21495;DHT22;10909;53.590;10.054;2023-03-20T17:20:27;13.40;71.60
21495;DHT22;10909;53.590;10.054;2023-03-20T17:22:55;13.30;71.40
21495;DHT22;10909;53.590;10.054;2023-03-20T17:25:21;13.30;71.40
21495;DHT22;10909;53.590;10.054;2023-03-20T17:27:46;13.40;71.60
21495;DHT22;10909;53.590;10.054;2023-03-20T17:30:22;13.30;71.40
21495;DHT22;10909;53.590;10.054;2023-03-20T17:32:49;13.30;71.30
21495;DHT22;10909;53.590;10.054;2023-03-20T17:35:15;13.30;71.40
21495;DHT22;10909;53.590;10.054;2023-03-20T17:37:41;13.30;71.50
21495;DHT22;10909;53.590;10.054;2023-03-20T17:40:16;13.30;71.50
21495;DHT22;10909;53.590;10.054;2023-03-20T17:42:42;13.30;71.60
21495;DHT22;10909;53.590;10.054;2023-03-20T17:45:10;13.30;71.50
21495;DHT22;10909;53.590;10.054;2023-03-20T17:47:37;13.20;71.40
21495;DHT22;10909;53.590;10.054;2023-03-20T17:50:03;13.20;71.50
21495;DHT22;10909;53.590;10.054;2023-03-20T17:52:28;13.20;71.60
21495;DHT22;10909;53.590;10.054;2023-03-20T17:54:54;13.20;71.70
21495;DHT22;10909;53.590;10.054;2023-03-20T17:57:36;13.20;71.70
21495;DHT22;10909;53.590;10.054;2023-03-20T18:00:07;13.20;71.80
21495;DHT22;10909;53.590;10.054;2023-03-20T18:02:33;13.10;71.70
21495;DHT22;10909;53.590;10.054;2023-03-20T18:04:58;13.10;71.70
21495;DHT22;10909;53.590;10.054;2023-03-20T18:07:24;13.10;71.60
21495;DHT22;10909;53.590;10.054;2023-03-20T18:09:50;13.00;71.50
21495;DHT22;10909;53.590;10.054;2023-03-20T18:12:17;12.90;71.60
21495;DHT22;10909;53.590;10.054;2023-03-20T18:14:44;12.90;71.90
21495;DHT22;10909;53.590;10.054;2023-03-20T18:17:14;12.80;72.10
21495;DHT22;10909;53.590;10.054;2023-03-20T18:19:41;12.70;72.20
21495;DHT22;10909;53.590;10.054;2023-03-20T18:22:07;12.60;72.40
21495;DHT22;10909;53.590;10.054;2023-03-20T18:24:33;12.70;72.60
21495;DHT22;10909;53.590;10.054;2023-03-20T18:26:59;12.60;72.70